sensor_id;sensor_type;location;lat;lon;timestamp;temperature;humidity
12957;DHT22;6543;48.836;10.092;2023-02-15T00:01:57;0.00;99.90
12957;DHT22;6543;48.836;10.092;2023-02-15T00:04:25;0.00;99.90
12957;DHT22;6543;48.836;10.092;2023-02-15T00:07:12;0.00;99.90
12957;DHT22;6543;48.836;10.092;2023-02-15T00:09:39;0.00;99.90
12957;DHT22;6543;48.836;10.092;2023-02-15T00:12:06;0.00;99.90
12957;DHT22;6543;48.836;10.092;2023-02-15T00:14:33;0.00;99.90
12957;DHT22;6543;48.836;10.092;2023-02-15T00:17:00;-0.10;99.90
12957;DHT22;6543;48.836;10.092;2023-02-15T00:19:28;-0.10;99.90
12957;DHT22;6543;48.836;10.092;2023-02-15T00:21:55;-0.10;99.90
12957;DHT22;6543;48.836;10.092;2023-02-15T00:24:22;0.00;99.90
12957;DHT22;6543;48.836;10.092;2023-02-15T00:26:49;0.00;99.90
12957;DHT22;6543;48.836;10.092;2023-02-15T00:29:16;-0.10;99.90
12957;DHT22;6543;48.836;10.092;2023-02-15T00:31:44;-0.10;99.90
12957;DHT22;6543;48.836;10.092;2023-02-15T00:34:12;-0.10;99.90
12957;DHT22;6543;48.836;10.092;2023-02-15T00:36:41;-0.10;99.90
12957;DHT22;6543;48.836;10.092;2023-02-15T00:39:08;-0.10;99.90
12957;DHT22;6543;48.836;10.092;2023-02-15T00:41:35;-0.10;99.90
12957;DHT22;6543;48.836;10.092;2023-02-15T00:44:03;-0.10;99.90
12957;DHT22;6543;48.836;10.092;2023-02-15T00:46:30;-0.10;99.90
12957;DHT22;6543;48.836;10.092;2023-02-15T00:48:58;-0.10;99.90
12957;DHT22;6543;48.836;10.092;2023-02-15T00:51:25;-0.20;99.90
12957;DHT22;6543;48.836;10.092;2023-02-15T00:53:53;-0.10;99.90
12957;DHT22;6543;48.836;10.092;2023-02-15T00:56:20;-0.10;99.90
12957;DHT22;6543;48.836;10.092;2023-02-15T00:58:47;-0.10;99.90
12957;DHT22;6543;48.836;10.092;2023-02-15T01:01:15;-0.10;99.90
12957;DHT22;6543;48.836;10.092;2023-02-15T01:03:43;-0.10;99.90
12957;DHT22;6543;48.836;10.092;2023-02-15T01:06:11;-0.10;99.90
12957;DHT22;6543;48.836;10.092;2023-02-15T01:08:39;-0.20;99.90
12957;DHT22;6543;48.836;10.092;2023-02-15T01:11:09;-0.20;99.90
12957;DHT22;6543;48.836;10.092;2023-02-15T01:13:36;-0.20;99.90
12957;DHT22;6543;48.836;10.092;2023-02-15T01:16:04;-0.20;99.90
12957;DHT22;6543;48.836;10.092;2023-02-15T01:18:31;-0.20;99.90
12957;DHT22;6543;48.836;10.092;2023-02-15T01:20:58;-0.20;99.90
12957;DHT22;6543;48.836;10.092;2023-02-15T01:23:24;-0.20;99.90
12957;DHT22;6543;48.836;10.092;2023-02-15T01:25:51;-0.30;99.90
12957;DHT22;6543;48.836;10.092;2023-02-15T01:28:19;-0.30;99.90
12957;DHT22;6543;48.836;10.092;2023-02-15T01:30:46;-0.30;99.90
12957;DHT22;6543;48.836;10.092;2023-02-15T01:33:13;-0.30;99.90
12957;DHT22;6543;48.836;10.092;2023-02-15T01:35:44;-0.20;99.90
12957;DHT22;6543;48.836;10.092;2023-02-15T01:38:11;-0.20;99.90
12957;DHT22;6543;48.836;10.092;2023-02-15T01:40:38;-0.30;99.90
12957;DHT22;6543;48.836;10.092;2023-02-15T01:43:09;-0.30;99.90
12957;DHT22;6543;48.836;10.092;2023-02-15T01:45:38;-0.30;99.90
12957;DHT22;6543;48.836;10.092;2023-02-15T01:48:11;-0.30;99.90
12957;DHT22;6543;48.836;10.092;2023-02-15T01:50:44;-0.30;99.90
12957;DHT22;6543;48.836;10.092;2023-02-15T01:53:15;-0.30;99.90
12957;DHT22;6543;48.836;10.092;2023-02-15T01:55:47;-0.30;99.90
12957;DHT22;6543;48.836;10.092;2023-02-15T01:58:14;-0.30;99.90
12957;DHT22;6543;48.836;10.092;2023-02-15T02:00:43;-0.40;99.90
12957;DHT22;6543;48.836;10.092;2023-02-15T02:03:11;-0.40;99.90
12957;DHT22;6543;48.836;10.092;2023-02-15T02:05:39;-0.50;99.90
12957;DHT22;6543;48.836;10.092;2023-02-15T02:08:07;-0.50;99.90
12957;DHT22;6543;48.836;10.092;2023-02-15T02:10:35;-0.50;99.90
12957;DHT22;6543;48.836;10.092;2023-02-15T02:13:03;-0.60;99.90
12957;DHT22;6543;48.836;10.092;2023-02-15T02:15:39;-0.70;99.90
12957;DHT22;6543;48.836;10.092;2023-02-15T02:18:18;-0.70;99.90
12957;DHT22;6543;48.836;10.092;2023-02-15T02:21:02;-0.60;99.90
12957;DHT22;6543;48.836;10.092;2023-02-15T02:23:49;-0.60;99.90
12957;DHT22;6543;48.836;10.092;2023-02-15T02:35:35;-0.50;99.90
12957;DHT22;6543;48.836;10.092;2023-02-15T02:38:10;-0.60;99.90
12957;DHT22;6543;48.836;10.092;2023-02-15T02:40:46;-0.60;99.90
12957;DHT22;6543;48.836;10.092;2023-02-15T02:43:18;-0.60;99.90
12957;DHT22;6543;48.836;10.092;2023-02-15T02:45:50;-0.60;99.90
12957;DHT22;6543;48.836;10.092;2023-02-15T02:48:22;-0.60;99.90
12957;DHT22;6543;48.836;10.092;2023-02-15T02:50:51;-0.70;99.90
12957;DHT22;6543;48.836;10.092;2023-02-15T02:53:18;-0.70;99.90
12957;DHT22;6543;48.836;10.092;2023-02-15T02:55:47;-0.70;99.90
12957;DHT22;6543;48.836;10.092;2023-02-15T02:58:18;-0.60;99.90
12957;DHT22;6543;48.836;10.092;2023-02-15T03:00:52;-0.60;99.90
12957;DHT22;6543;48.836;10.092;2023-02-15T03:03:24;-0.60;99.90
12957;DHT22;6543;48.836;10.092;2023-02-15T03:05:57;-0.60;99.90
12957;DHT22;6543;48.836;10.092;2023-02-15T03:08:27;-0.60;99.90
12957;DHT22;6543;48.836;10.092;2023-02-15T03:10:59;-0.60;99.90
12957;DHT22;6543;48.836;10.092;2023-02-15T03:13:27;-0.60;99.90
12957;DHT22;6543;48.836;10.092;2023-02-15T03:15:55;-0.60;99.90
12957;DHT22;6543;48.836;10.092;2023-02-15T03:18:44;-0.60;99.90
12957;DHT22;6543;48.836;10.092;2023-02-15T03:21:21;-0.60;99.90
12957;DHT22;6543;48.836;10.092;2023-02-15T03:23:53;-0.60;99.90
12957;DHT22;6543;48.836;10.092;2023-02-15T03:26:24;-0.60;99.90
12957;DHT22;6543;48.836;10.092;2023-02-15T03:28:54;-0.60;99.90
12957;DHT22;6543;48.836;10.092;2023-02-15T03:31:25;-0.60;99.90
12957;DHT22;6543;48.836;10.092;2023-02-15T03:33:55;-0.70;99.90
12957;DHT22;6543;48.836;10.092;2023-02-15T03:36:28;-0.70;99.90
12957;DHT22;6543;48.836;10.092;2023-02-15T03:39:00;-0.70;99.90
12957;DHT22;6543;48.836;10.092;2023-02-15T03:41:33;-0.70;99.90
12957;DHT22;6543;48.836;10.092;2023-02-15T03:44:04;-0.70;99.90
12957;DHT22;6543;48.836;10.092;2023-02-15T03:46:35;-0.80;99.90
12957;DHT22;6543;48.836;10.092;2023-02-15T03:49:06;-0.80;99.90
12957;DHT22;6543;48.836;10.092;2023-02-15T03:51:39;-0.80;99.90
12957;DHT22;6543;48.836;10.092;2023-02-15T03:54:08;-0.80;99.90
12957;DHT22;6543;48.836;10.092;2023-02-15T03:56:37;-0.80;99.90
12957;DHT22;6543;48.836;10.092;2023-02-15T03:59:04;-0.80;99.90
12957;DHT22;6543;48.836;10.092;2023-02-15T04:01:57;-0.90;99.90
12957;DHT22;6543;48.836;10.092;2023-02-15T04:04:33;-0.90;99.90
12957;DHT22;6543;48.836;10.092;2023-02-15T04:07:02;-0.90;99.90
12957;DHT22;6543;48.836;10.092;2023-02-15T04:09:29;-0.90;99.90
12957;DHT22;6543;48.836;10.092;2023-02-15T04:12:13;-0.90;99.90
12957;DHT22;6543;48.836;10.092;2023-02-15T04:14:40;-0.90;99.90
12957;DHT22;6543;48.836;10.092;2023-02-15T04:17:25;-0.90;99.90
12957;DHT22;6543;48.836;10.092;2023-02-15T04:19:51;-0.90;99.90
12957;DHT22;6543;48.836;10.092;2023-02-15T04:22:37;-0.80;99.90
12957;DHT22;6543;48.836;10.092;2023-02-15T04:25:21;-0.80;99.90
12957;DHT22;6543;48.836;10.092;2023-02-15T04:27:50;-0.80;99.90
12957;DHT22;6543;48.836;10.092;2023-02-15T04:30:19;-0.90;99.90
12957;DHT22;6543;48.836;10.092;2023-02-15T04:32:46;-0.80;99.90
12957;DHT22;6543;48.836;10.092;2023-02-15T04:35:14;-0.80;99.90
12957;DHT22;6543;48.836;10.092;2023-02-15T04:37:42;-0.80;99.90
12957;DHT22;6543;48.836;10.092;2023-02-15T04:40:11;-0.80;99.90
12957;DHT22;6543;48.836;10.092;2023-02-15T04:42:39;-0.90;99.90
12957;DHT22;6543;48.836;10.092;2023-02-15T04:45:06;-0.90;99.90
12957;DHT22;6543;48.836;10.092;2023-02-15T04:47:33;-0.90;99.90
12957;DHT22;6543;48.836;10.092;2023-02-15T04:50:00;-0.90;99.90
12957;DHT22;6543;48.836;10.092;2023-02-15T04:52:27;-0.90;99.90
12957;DHT22;6543;48.836;10.092;2023-02-15T04:54:55;-0.90;99.90
12957;DHT22;6543;48.836;10.092;2023-02-15T04:57:22;-0.90;99.90
12957;DHT22;6543;48.836;10.092;2023-02-15T04:59:49;-1.00;99.90
12957;DHT22;6543;48.836;10.092;2023-02-15T05:02:15;-1.00;99.90
12957;DHT22;6543;48.836;10.092;2023-02-15T05:04:42;-1.00;99.90
12957;DHT22;6543;48.836;10.092;2023-02-15T05:07:09;-0.90;99.90
12957;DHT22;6543;48.836;10.092;2023-02-15T05:09:36;-1.00;99.90
12957;DHT22;6543;48.836;10.092;2023-02-15T05:12:04;-1.00;99.90
12957;DHT22;6543;48.836;10.092;2023-02-15T05:14:31;-1.00;99.90
12957;DHT22;6543;48.836;10.092;2023-02-15T05:16:58;-1.00;99.90
12957;DHT22;6543;48.836;10.092;2023-02-15T05:19:27;-1.10;99.90
12957;DHT22;6543;48.836;10.092;2023-02-15T05:21:54;-1.20;99.90
12957;DHT22;6543;48.836;10.092;2023-02-15T05:24:20;-1.30;99.90
12957;DHT22;6543;48.836;10.092;2023-02-15T05:27:07;-1.40;99.90
12957;DHT22;6543;48.836;10.092;2023-02-15T05:29:54;-1.40;99.90
12957;DHT22;6543;48.836;10.092;2023-02-15T05:32:21;-1.30;99.90
12957;DHT22;6543;48.836;10.092;2023-02-15T05:34:47;-1.20;99.90
12957;DHT22;6543;48.836;10.092;2023-02-15T05:37:14;-1.20;99.90
12957;DHT22;6543;48.836;10.092;2023-02-15T05:39:41;-1.10;99.90
12957;DHT22;6543;48.836;10.092;2023-02-15T05:42:09;-1.00;99.90
12957;DHT22;6543;48.836;10.092;2023-02-15T05:44:36;-0.90;99.90
12957;DHT22;6543;48.836;10.092;2023-02-15T05:47:03;-0.90;99.90
12957;DHT22;6543;48.836;10.092;2023-02-15T05:49:32;-0.90;99.90
12957;DHT22;6543;48.836;10.092;2023-02-15T05:51:59;-0.90;99.90
12957;DHT22;6543;48.836;10.092;2023-02-15T05:54:26;-0.90;99.90
12957;DHT22;6543;48.836;10.092;2023-02-15T05:56:54;-0.90;99.90
12957;DHT22;6543;48.836;10.092;2023-02-15T05:59:22;-0.90;99.90
12957;DHT22;6543;48.836;10.092;2023-02-15T06:01:49;-1.10;99.90
12957;DHT22;6543;48.836;10.092;2023-02-15T06:04:16;-1.30;99.90
12957;DHT22;6543;48.836;10.092;2023-02-15T06:06:43;-1.30;99.90
12957;DHT22;6543;48.836;10.092;2023-02-15T06:09:10;-1.30;99.90
12957;DHT22;6543;48.836;10.092;2023-02-15T06:11:37;-1.20;99.90
12957;DHT22;6543;48.836;10.092;2023-02-15T06:14:04;-1.00;99.90
12957;DHT22;6543;48.836;10.092;2023-02-15T06:16:32;-1.00;99.90
12957;DHT22;6543;48.836;10.092;2023-02-15T06:18:59;-1.00;99.90
12957;DHT22;6543;48.836;10.092;2023-02-15T06:21:29;-1.00;99.90
12957;DHT22;6543;48.836;10.092;2023-02-15T06:23:55;-1.00;99.90
12957;DHT22;6543;48.836;10.092;2023-02-15T06:26:23;-0.90;99.90
12957;DHT22;6543;48.836;10.092;2023-02-15T06:28:49;-0.90;99.90
12957;DHT22;6543;48.836;10.092;2023-02-15T06:31:16;-1.00;99.90
12957;DHT22;6543;48.836;10.092;2023-02-15T06:33:44;-1.00;99.90
12957;DHT22;6543;48.836;10.092;2023-02-15T06:36:11;-1.00;99.90
12957;DHT22;6543;48.836;10.092;2023-02-15T06:38:38;-1.00;99.90
12957;DHT22;6543;48.836;10.092;2023-02-15T06:41:05;-0.90;99.90
12957;DHT22;6543;48.836;10.092;2023-02-15T06:43:32;-1.00;99.90
12957;DHT22;6543;48.836;10.092;2023-02-15T06:45:59;-0.90;99.90
12957;DHT22;6543;48.836;10.092;2023-02-15T06:48:26;-0.90;99.90
12957;DHT22;6543;48.836;10.092;2023-02-15T06:50:55;-0.90;99.90
12957;DHT22;6543;48.836;10.092;2023-02-15T06:53:21;-0.80;99.90
12957;DHT22;6543;48.836;10.092;2023-02-15T06:55:48;-0.90;99.90
12957;DHT22;6543;48.836;10.092;2023-02-15T06:58:15;-0.80;99.90
12957;DHT22;6543;48.836;10.092;2023-02-15T07:00:42;-0.80;99.90
12957;DHT22;6543;48.836;10.092;2023-02-15T07:03:09;-0.80;99.90
12957;DHT22;6543;48.836;10.092;2023-02-15T07:05:36;-0.70;99.90
12957;DHT22;6543;48.836;10.092;2023-02-15T07:08:04;-0.60;99.90
12957;DHT22;6543;48.836;10.092;2023-02-15T07:10:31;-0.60;99.90
12957;DHT22;6543;48.836;10.092;2023-02-15T07:12:57;-0.60;99.90
12957;DHT22;6543;48.836;10.092;2023-02-15T07:15:24;-0.60;99.90
12957;DHT22;6543;48.836;10.092;2023-02-15T07:17:51;-0.60;99.90
12957;DHT22;6543;48.836;10.092;2023-02-15T07:20:19;-0.50;99.90
12957;DHT22;6543;48.836;10.092;2023-02-15T07:22:47;-0.50;99.90
12957;DHT22;6543;48.836;10.092;2023-02-15T07:25:16;-0.50;99.90
12957;DHT22;6543;48.836;10.092;2023-02-15T07:27:44;-0.40;99.90
12957;DHT22;6543;48.836;10.092;2023-02-15T07:30:13;-0.30;99.90
12957;DHT22;6543;48.836;10.092;2023-02-15T07:32:41;-0.30;99.90
12957;DHT22;6543;48.836;10.092;2023-02-15T07:35:21;-0.20;99.90
12957;DHT22;6543;48.836;10.092;2023-02-15T07:37:48;-0.20;99.90
12957;DHT22;6543;48.836;10.092;2023-02-15T07:40:17;-0.10;99.90
12957;DHT22;6543;48.836;10.092;2023-02-15T07:42:43;0.00;99.90
12957;DHT22;6543;48.836;10.092;2023-02-15T07:45:10;0.00;99.90
12957;DHT22;6543;48.836;10.092;2023-02-15T07:47:38;0.00;99.90
12957;DHT22;6543;48.836;10.092;2023-02-15T07:50:05;0.20;99.90
12957;DHT22;6543;48.836;10.092;2023-02-15T07:52:32;0.20;99.90
12957;DHT22;6543;48.836;10.092;2023-02-15T07:54:59;0.30;99.90
12957;DHT22;6543;48.836;10.092;2023-02-15T07:57:28;0.30;99.90
12957;DHT22;6543;48.836;10.092;2023-02-15T07:59:55;0.40;99.90
12957;DHT22;6543;48.836;10.092;2023-02-15T08:02:22;0.50;99.90
12957;DHT22;6543;48.836;10.092;2023-02-15T08:04:50;0.50;99.90
12957;DHT22;6543;48.836;10.092;2023-02-15T08:07:17;0.60;99.90
12957;DHT22;6543;48.836;10.092;2023-02-15T08:09:44;0.60;99.90
12957;DHT22;6543;48.836;10.092;2023-02-15T08:12:10;0.60;99.90
12957;DHT22;6543;48.836;10.092;2023-02-15T08:14:39;0.70;99.90
12957;DHT22;6543;48.836;10.092;2023-02-15T08:17:05;0.70;99.90
12957;DHT22;6543;48.836;10.092;2023-02-15T08:19:33;0.90;99.90
12957;DHT22;6543;48.836;10.092;2023-02-15T08:22:01;0.90;99.90
12957;DHT22;6543;48.836;10.092;2023-02-15T08:24:30;1.10;99.90
12957;DHT22;6543;48.836;10.092;2023-02-15T08:26:57;1.20;99.90
12957;DHT22;6543;48.836;10.092;2023-02-15T08:29:27;1.20;99.90
12957;DHT22;6543;48.836;10.092;2023-02-15T08:31:57;1.30;99.90
12957;DHT22;6543;48.836;10.092;2023-02-15T08:34:28;1.40;99.90
12957;DHT22;6543;48.836;10.092;2023-02-15T08:36:56;1.50;99.90
12957;DHT22;6543;48.836;10.092;2023-02-15T08:39:23;1.60;99.90
12957;DHT22;6543;48.836;10.092;2023-02-15T08:41:50;1.60;99.90
12957;DHT22;6543;48.836;10.092;2023-02-15T08:44:18;1.70;99.90
12957;DHT22;6543;48.836;10.092;2023-02-15T08:46:47;1.80;99.90
12957;DHT22;6543;48.836;10.092;2023-02-15T08:49:18;1.90;99.90
12957;DHT22;6543;48.836;10.092;2023-02-15T08:51:46;2.00;99.90
12957;DHT22;6543;48.836;10.092;2023-02-15T08:54:15;2.00;99.90
12957;DHT22;6543;48.836;10.092;2023-02-15T08:56:43;2.20;99.90
12957;DHT22;6543;48.836;10.092;2023-02-15T08:59:13;2.20;99.90
12957;DHT22;6543;48.836;10.092;2023-02-15T09:01:42;2.30;99.90
12957;DHT22;6543;48.836;10.092;2023-02-15T09:04:09;2.40;99.90
12957;DHT22;6543;48.836;10.092;2023-02-15T09:06:39;2.40;99.90
12957;DHT22;6543;48.836;10.092;2023-02-15T09:09:06;2.50;99.90
12957;DHT22;6543;48.836;10.092;2023-02-15T09:11:35;2.60;99.90
12957;DHT22;6543;48.836;10.092;2023-02-15T09:14:04;2.70;99.90
12957;DHT22;6543;48.836;10.092;2023-02-15T09:16:32;2.80;99.90
12957;DHT22;6543;48.836;10.092;2023-02-15T09:18:59;2.80;99.90
12957;DHT22;6543;48.836;10.092;2023-02-15T09:21:28;2.90;99.90
12957;DHT22;6543;48.836;10.092;2023-02-15T09:26:27;3.20;99.90
12957;DHT22;6543;48.836;10.092;2023-02-15T09:28:58;3.30;99.90
12957;DHT22;6543;48.836;10.092;2023-02-15T09:31:27;4.40;99.90
12957;DHT22;6543;48.836;10.092;2023-02-15T09:33:56;3.50;99.90
12957;DHT22;6543;48.836;10.092;2023-02-15T09:36:25;3.90;99.90
12957;DHT22;6543;48.836;10.092;2023-02-15T09:38:55;4.70;99.90
12957;DHT22;6543;48.836;10.092;2023-02-15T09:47:20;3.90;99.90
12957;DHT22;6543;48.836;10.092;2023-02-15T09:49:55;4.00;99.90
12957;DHT22;6543;48.836;10.092;2023-02-15T09:52:34;4.10;99.90
12957;DHT22;6543;48.836;10.092;2023-02-15T09:55:14;4.20;99.90
12957;DHT22;6543;48.836;10.092;2023-02-15T09:57:50;4.30;99.90
12957;DHT22;6543;48.836;10.092;2023-02-15T10:00:25;4.50;99.90
12957;DHT22;6543;48.836;10.092;2023-02-15T10:03:20;4.60;99.90
12957;DHT22;6543;48.836;10.092;2023-02-15T10:05:59;4.80;99.90
12957;DHT22;6543;48.836;10.092;2023-02-15T10:08:47;4.80;99.90
12957;DHT22;6543;48.836;10.092;2023-02-15T10:11:24;4.90;99.90
12957;DHT22;6543;48.836;10.092;2023-02-15T10:19:19;5.30;99.90
12957;DHT22;6543;48.836;10.092;2023-02-15T10:22:01;5.30;99.90
12957;DHT22;6543;48.836;10.092;2023-02-15T10:24:43;5.30;99.90
12957;DHT22;6543;48.836;10.092;2023-02-15T10:27:15;5.40;99.90
12957;DHT22;6543;48.836;10.092;2023-02-15T10:29:53;5.40;99.90
12957;DHT22;6543;48.836;10.092;2023-02-15T10:32:27;5.60;99.90
12957;DHT22;6543;48.836;10.092;2023-02-15T10:34:59;5.80;99.90
12957;DHT22;6543;48.836;10.092;2023-02-15T10:38:04;5.90;99.90
12957;DHT22;6543;48.836;10.092;2023-02-15T10:40:38;5.90;99.90
12957;DHT22;6543;48.836;10.092;2023-02-15T10:43:17;6.00;99.90
12957;DHT22;6543;48.836;10.092;2023-02-15T10:45:55;6.10;99.90
12957;DHT22;6543;48.836;10.092;2023-02-15T10:48:47;6.20;99.90
12957;DHT22;6543;48.836;10.092;2023-02-15T10:51:29;6.30;99.90
12957;DHT22;6543;48.836;10.092;2023-02-15T10:54:09;6.40;99.90
12957;DHT22;6543;48.836;10.092;2023-02-15T10:56:40;6.50;99.90
12957;DHT22;6543;48.836;10.092;2023-02-15T10:59:30;6.60;99.90
12957;DHT22;6543;48.836;10.092;2023-02-15T11:02:03;6.60;99.90
12957;DHT22;6543;48.836;10.092;2023-02-15T11:04:44;6.80;99.90
12957;DHT22;6543;48.836;10.092;2023-02-15T11:07:16;6.90;99.90
12957;DHT22;6543;48.836;10.092;2023-02-15T11:09:48;7.00;99.90
12957;DHT22;6543;48.836;10.092;2023-02-15T11:12:17;7.00;99.90
12957;DHT22;6543;48.836;10.092;2023-02-15T11:14:49;7.00;99.90
12957;DHT22;6543;48.836;10.092;2023-02-15T11:17:24;7.10;99.90
12957;DHT22;6543;48.836;10.092;2023-02-15T11:19:58;7.20;99.90
12957;DHT22;6543;48.836;10.092;2023-02-15T11:22:29;7.30;99.90
12957;DHT22;6543;48.836;10.092;2023-02-15T11:24:58;7.30;99.90
12957;DHT22;6543;48.836;10.092;2023-02-15T11:27:28;7.30;99.90
12957;DHT22;6543;48.836;10.092;2023-02-15T11:29:59;7.40;99.90
12957;DHT22;6543;48.836;10.092;2023-02-15T11:32:31;7.30;99.90
12957;DHT22;6543;48.836;10.092;2023-02-15T11:35:01;7.50;99.90
12957;DHT22;6543;48.836;10.092;2023-02-15T11:37:35;7.50;99.90
12957;DHT22;6543;48.836;10.092;2023-02-15T11:40:14;7.60;99.90
12957;DHT22;6543;48.836;10.092;2023-02-15T11:42:43;7.70;99.90
12957;DHT22;6543;48.836;10.092;2023-02-15T11:45:21;7.70;99.90
12957;DHT22;6543;48.836;10.092;2023-02-15T11:47:51;7.80;99.90
12957;DHT22;6543;48.836;10.092;2023-02-15T11:50:21;7.80;99.90
12957;DHT22;6543;48.836;10.092;2023-02-15T11:52:49;7.90;99.90
12957;DHT22;6543;48.836;10.092;2023-02-15T11:55:20;7.90;99.90
12957;DHT22;6543;48.836;10.092;2023-02-15T11:57:53;7.80;99.90
12957;DHT22;6543;48.836;10.092;2023-02-15T12:00:30;7.90;99.90
12957;DHT22;6543;48.836;10.092;2023-02-15T12:03:07;8.00;99.90
12957;DHT22;6543;48.836;10.092;2023-02-15T12:05:40;8.10;99.90
12957;DHT22;6543;48.836;10.092;2023-02-15T12:08:17;8.20;99.90
12957;DHT22;6543;48.836;10.092;2023-02-15T12:11:00;8.30;99.90
12957;DHT22;6543;48.836;10.092;2023-02-15T12:13:29;8.40;99.90
12957;DHT22;6543;48.836;10.092;2023-02-15T12:15:58;8.40;99.90
12957;DHT22;6543;48.836;10.092;2023-02-15T12:18:38;8.50;99.90
12957;DHT22;6543;48.836;10.092;2023-02-15T12:21:08;8.70;99.90
12957;DHT22;6543;48.836;10.092;2023-02-15T12:23:43;8.60;99.90
12957;DHT22;6543;48.836;10.092;2023-02-15T12:26:13;8.50;99.90
12957;DHT22;6543;48.836;10.092;2023-02-15T12:28:42;8.60;99.90
12957;DHT22;6543;48.836;10.092;2023-02-15T12:31:20;8.60;99.90
12957;DHT22;6543;48.836;10.092;2023-02-15T12:33:51;8.80;99.90
12957;DHT22;6543;48.836;10.092;2023-02-15T12:36:21;8.80;99.90
12957;DHT22;6543;48.836;10.092;2023-02-15T12:39:09;8.80;99.90
12957;DHT22;6543;48.836;10.092;2023-02-15T12:41:45;8.70;99.90
12957;DHT22;6543;48.836;10.092;2023-02-15T12:44:17;8.80;99.90
12957;DHT22;6543;48.836;10.092;2023-02-15T12:46:56;8.90;99.90
12957;DHT22;6543;48.836;10.092;2023-02-15T12:49:25;9.00;99.90
12957;DHT22;6543;48.836;10.092;2023-02-15T12:51:54;9.00;99.90
12957;DHT22;6543;48.836;10.092;2023-02-15T12:54:36;9.10;99.90
12957;DHT22;6543;48.836;10.092;2023-02-15T12:57:21;9.10;99.90
12957;DHT22;6543;48.836;10.092;2023-02-15T12:59:49;9.10;99.90
12957;DHT22;6543;48.836;10.092;2023-02-15T13:02:21;9.20;99.90
12957;DHT22;6543;48.836;10.092;2023-02-15T13:04:51;9.20;99.90
12957;DHT22;6543;48.836;10.092;2023-02-15T13:07:19;9.20;99.90
12957;DHT22;6543;48.836;10.092;2023-02-15T13:09:47;9.30;99.90
12957;DHT22;6543;48.836;10.092;2023-02-15T13:12:20;9.30;99.90
12957;DHT22;6543;48.836;10.092;2023-02-15T13:14:49;9.40;99.90
12957;DHT22;6543;48.836;10.092;2023-02-15T13:17:19;9.50;99.90
12957;DHT22;6543;48.836;10.092;2023-02-15T13:19:51;9.50;99.90
12957;DHT22;6543;48.836;10.092;2023-02-15T13:22:27;9.60;99.90
12957;DHT22;6543;48.836;10.092;2023-02-15T13:24:58;9.70;99.90
12957;DHT22;6543;48.836;10.092;2023-02-15T13:27:31;9.70;99.90
12957;DHT22;6543;48.836;10.092;2023-02-15T13:30:04;9.70;99.90
12957;DHT22;6543;48.836;10.092;2023-02-15T13:32:38;9.70;99.90
12957;DHT22;6543;48.836;10.092;2023-02-15T13:35:14;9.70;99.90
12957;DHT22;6543;48.836;10.092;2023-02-15T13:38:02;9.80;99.90
12957;DHT22;6543;48.836;10.092;2023-02-15T13:40:35;9.90;99.90
12957;DHT22;6543;48.836;10.092;2023-02-15T13:43:17;10.00;99.90
12957;DHT22;6543;48.836;10.092;2023-02-15T13:46:00;10.10;99.90
12957;DHT22;6543;48.836;10.092;2023-02-15T13:48:39;10.30;99.90
12957;DHT22;6543;48.836;10.092;2023-02-15T13:51:15;10.30;99.90
12957;DHT22;6543;48.836;10.092;2023-02-15T13:54:04;10.30;99.90
12957;DHT22;6543;48.836;10.092;2023-02-15T13:56:47;10.20;99.90
12957;DHT22;6543;48.836;10.092;2023-02-15T14:05:37;10.50;99.90
12957;DHT22;6543;48.836;10.092;2023-02-15T14:08:11;10.50;99.90
12957;DHT22;6543;48.836;10.092;2023-02-15T14:10:46;10.70;99.90
12957;DHT22;6543;48.836;10.092;2023-02-15T14:13:48;10.80;99.90
12957;DHT22;6543;48.836;10.092;2023-02-15T14:16:24;10.80;99.90
12957;DHT22;6543;48.836;10.092;2023-02-15T14:19:04;10.70;99.90
12957;DHT22;6543;48.836;10.092;2023-02-15T14:21:34;10.80;99.90
12957;DHT22;6543;48.836;10.092;2023-02-15T14:24:22;10.80;99.90
12957;DHT22;6543;48.836;10.092;2023-02-15T14:26:59;10.90;99.90
12957;DHT22;6543;48.836;10.092;2023-02-15T14:29:45;10.90;99.90
12957;DHT22;6543;48.836;10.092;2023-02-15T14:32:18;10.90;99.90
12957;DHT22;6543;48.836;10.092;2023-02-15T14:34:49;10.90;99.90
12957;DHT22;6543;48.836;10.092;2023-02-15T14:37:22;11.00;99.90
12957;DHT22;6543;48.836;10.092;2023-02-15T14:39:56;11.00;99.90
12957;DHT22;6543;48.836;10.092;2023-02-15T14:42:48;11.00;99.90
12957;DHT22;6543;48.836;10.092;2023-02-15T14:45:22;11.00;99.90
12957;DHT22;6543;48.836;10.092;2023-02-15T14:47:55;11.00;99.90
12957;DHT22;6543;48.836;10.092;2023-02-15T14:50:40;11.00;99.90
12957;DHT22;6543;48.836;10.092;2023-02-15T14:53:36;11.10;99.90
12957;DHT22;6543;48.836;10.092;2023-02-15T14:56:26;11.10;99.90
12957;DHT22;6543;48.836;10.092;2023-02-15T14:59:14;11.00;99.90
12957;DHT22;6543;48.836;10.092;2023-02-15T15:01:51;11.10;99.90
12957;DHT22;6543;48.836;10.092;2023-02-15T15:04:28;11.00;99.90
12957;DHT22;6543;48.836;10.092;2023-02-15T15:07:03;10.90;99.90
12957;DHT22;6543;48.836;10.092;2023-02-15T15:09:36;10.80;99.90
12957;DHT22;6543;48.836;10.092;2023-02-15T15:15:03;10.70;99.90
12957;DHT22;6543;48.836;10.092;2023-02-15T15:17:58;10.60;99.90
12957;DHT22;6543;48.836;10.092;2023-02-15T15:20:45;10.60;99.90
12957;DHT22;6543;48.836;10.092;2023-02-15T15:23:41;10.70;99.90
12957;DHT22;6543;48.836;10.092;2023-02-15T15:26:30;10.70;99.90
12957;DHT22;6543;48.836;10.092;2023-02-15T15:29:03;10.50;99.90
12957;DHT22;6543;48.836;10.092;2023-02-15T15:31:43;10.40;99.90
12957;DHT22;6543;48.836;10.092;2023-02-15T15:34:22;10.30;99.90
12957;DHT22;6543;48.836;10.092;2023-02-15T15:37:31;10.10;99.90
12957;DHT22;6543;48.836;10.092;2023-02-15T15:43:34;10.10;99.90
12957;DHT22;6543;48.836;10.092;2023-02-15T15:46:32;9.90;99.90
12957;DHT22;6543;48.836;10.092;2023-02-15T15:49:10;9.60;99.90
12957;DHT22;6543;48.836;10.092;2023-02-15T15:51:40;9.50;99.90
12957;DHT22;6543;48.836;10.092;2023-02-15T15:54:15;9.20;99.90
12957;DHT22;6543;48.836;10.092;2023-02-15T15:56:46;9.10;99.90
12957;DHT22;6543;48.836;10.092;2023-02-15T15:59:18;9.00;99.90
12957;DHT22;6543;48.836;10.092;2023-02-15T16:01:46;8.90;99.90
12957;DHT22;6543;48.836;10.092;2023-02-15T16:04:23;8.80;99.90
12957;DHT22;6543;48.836;10.092;2023-02-15T16:06:51;8.70;99.90
12957;DHT22;6543;48.836;10.092;2023-02-15T16:09:19;8.60;99.90
12957;DHT22;6543;48.836;10.092;2023-02-15T16:11:48;8.00;99.90
12957;DHT22;6543;48.836;10.092;2023-02-15T16:14:23;8.50;99.90
12957;DHT22;6543;48.836;10.092;2023-02-15T16:16:53;8.40;99.90
12957;DHT22;6543;48.836;10.092;2023-02-15T16:19:26;8.30;99.90
12957;DHT22;6543;48.836;10.092;2023-02-15T16:21:54;8.10;99.90
12957;DHT22;6543;48.836;10.092;2023-02-15T16:24:36;7.90;99.90
12957;DHT22;6543;48.836;10.092;2023-02-15T16:27:26;7.80;99.90
12957;DHT22;6543;48.836;10.092;2023-02-15T16:29:56;7.60;99.90
12957;DHT22;6543;48.836;10.092;2023-02-15T16:32:24;7.50;99.90
12957;DHT22;6543;48.836;10.092;2023-02-15T16:35:02;7.40;99.90
12957;DHT22;6543;48.836;10.092;2023-02-15T16:37:32;7.30;99.90
12957;DHT22;6543;48.836;10.092;2023-02-15T16:40:00;7.20;99.90
12957;DHT22;6543;48.836;10.092;2023-02-15T16:42:27;7.20;99.90
12957;DHT22;6543;48.836;10.092;2023-02-15T16:44:57;7.00;99.90